Airfield :
LOGIN :

Register | Disclaimer

   EN    FR    IT 

 










Legend :    VFR   Marginal VFR   IFR   Intensive IFR   Very Intensive IFR
Visi :
Ceiling :
>= 8 km
>= 3000ft
5 to 8 km
1000 to 3000 ft
1500m to 5 km
500 to 1000 ft
800 to 1500m
200 to 500 ft
< 800m
< 200 ft
Symbols :   Thunderstorms  Fog  Heavy snow  Heavy precipitations  Wind > 20 kt
SIGMETs :     Misc.  Thunderstorms  Icing  Turbulence  Mountain Waves  Volcanic Ashes







- Airport Elevation : 597 ft
- IATA code : PDV


LBPD - Plovdiv

CURRENT METAR :
  • 230430Z AUTO 10004KT 070V130 9999 NCD 22/17 Q1016 NOSIG

EXPIRED METARs :
  • 230400Z AUTO 30006KT 9999 NCD 22/16 Q1016 NOSIG
  • 230330Z AUTO VRB02KT 9999 NCD 23/15 Q1016 NOSIG
  • 230300Z AUTO 00000KT 9999 NCD 22/15 Q1016 NOSIG
  • 230230Z AUTO 00000KT 9999 NCD 21/16 Q1016
  • 230200Z AUTO 29006KT 210V320 9999 NCD 20/15 Q1016

TAF TAF LBPD
Valid from the 23 at 00:00 until the 24 at 00:00 UTC


222300Z 2300/2324 VRB04KT 9999 SCT070
BECMG 2306/2308 27012KT
PROB30
TEMPO 2313/2319 5000 TSRA FEW030CB SCT050
BECMG 2316/2318 VRB04KT
No reported NOTAMs for that airfield.



MET'MAP, your aeronautical weather chart ! - Copyright ORBIFLY December 2007 - Disclaimer

ORBIFLY MET'MAP TEAM :

Programming & Development : Alexandra Zaïnal
Concept & Development : Baudouin d'Aumeries
Co-Development & Prog : Marc-Olivier Méhu
Technical & hardware support : Manuel Goepfert

Contact : metmap@orbifly.com




SOURCES & CREDITS :

   NOAA